sensor_id;sensor_type;location;lat;lon;timestamp;temperature;humidity
10437;DHT22;5265;50.006;9.202;2023-05-07T00:00:49;14.20;99.90
10437;DHT22;5265;50.006;9.202;2023-05-07T00:03:17;14.20;99.90
10437;DHT22;5265;50.006;9.202;2023-05-07T00:05:44;14.30;99.90
10437;DHT22;5265;50.006;9.202;2023-05-07T00:08:12;14.30;99.90
10437;DHT22;5265;50.006;9.202;2023-05-07T00:10:40;14.30;99.90
10437;DHT22;5265;50.006;9.202;2023-05-07T00:13:07;14.20;99.90
10437;DHT22;5265;50.006;9.202;2023-05-07T00:15:34;14.30;99.90
10437;DHT22;5265;50.006;9.202;2023-05-07T00:18:01;14.20;99.90
10437;DHT22;5265;50.006;9.202;2023-05-07T00:20:29;14.20;99.90
10437;DHT22;5265;50.006;9.202;2023-05-07T00:22:56;14.10;99.90
10437;DHT22;5265;50.006;9.202;2023-05-07T00:25:23;14.10;99.90
10437;DHT22;5265;50.006;9.202;2023-05-07T00:27:51;14.00;99.90
10437;DHT22;5265;50.006;9.202;2023-05-07T00:30:18;14.00;99.90
10437;DHT22;5265;50.006;9.202;2023-05-07T00:32:46;14.10;99.90
10437;DHT22;5265;50.006;9.202;2023-05-07T00:35:14;14.80;99.90
10437;DHT22;5265;50.006;9.202;2023-05-07T00:37:41;14.20;99.90
10437;DHT22;5265;50.006;9.202;2023-05-07T00:40:09;14.10;99.90
10437;DHT22;5265;50.006;9.202;2023-05-07T00:42:36;14.10;99.90
10437;DHT22;5265;50.006;9.202;2023-05-07T00:45:05;14.20;99.90
10437;DHT22;5265;50.006;9.202;2023-05-07T00:47:33;14.10;99.90
10437;DHT22;5265;50.006;9.202;2023-05-07T00:50:00;14.10;99.90
10437;DHT22;5265;50.006;9.202;2023-05-07T00:52:28;14.20;99.90
10437;DHT22;5265;50.006;9.202;2023-05-07T00:54:56;14.20;99.90
10437;DHT22;5265;50.006;9.202;2023-05-07T00:57:23;14.10;99.90
10437;DHT22;5265;50.006;9.202;2023-05-07T00:59:51;14.30;99.90
10437;DHT22;5265;50.006;9.202;2023-05-07T01:02:20;14.20;99.90
10437;DHT22;5265;50.006;9.202;2023-05-07T01:04:47;14.10;99.90
10437;DHT22;5265;50.006;9.202;2023-05-07T01:07:14;14.20;99.90
10437;DHT22;5265;50.006;9.202;2023-05-07T01:09:41;14.20;99.90
10437;DHT22;5265;50.006;9.202;2023-05-07T01:12:08;14.30;99.90
10437;DHT22;5265;50.006;9.202;2023-05-07T01:14:36;14.30;99.90
10437;DHT22;5265;50.006;9.202;2023-05-07T01:17:03;14.30;99.90
10437;DHT22;5265;50.006;9.202;2023-05-07T01:19:31;14.30;99.90
10437;DHT22;5265;50.006;9.202;2023-05-07T01:22:01;14.30;99.90
10437;DHT22;5265;50.006;9.202;2023-05-07T01:24:31;14.30;99.90
10437;DHT22;5265;50.006;9.202;2023-05-07T01:26:59;14.20;99.90
10437;DHT22;5265;50.006;9.202;2023-05-07T01:29:31;14.40;99.90
10437;DHT22;5265;50.006;9.202;2023-05-07T01:31:58;14.30;99.90
10437;DHT22;5265;50.006;9.202;2023-05-07T01:34:27;14.40;99.90
10437;DHT22;5265;50.006;9.202;2023-05-07T01:36:54;14.40;99.90
10437;DHT22;5265;50.006;9.202;2023-05-07T01:39:24;14.30;99.90
10437;DHT22;5265;50.006;9.202;2023-05-07T01:41:53;14.40;99.90
10437;DHT22;5265;50.006;9.202;2023-05-07T01:44:21;14.40;99.90
10437;DHT22;5265;50.006;9.202;2023-05-07T01:46:49;14.30;99.90
10437;DHT22;5265;50.006;9.202;2023-05-07T01:49:16;14.40;99.90
10437;DHT22;5265;50.006;9.202;2023-05-07T01:51:44;14.40;99.90
10437;DHT22;5265;50.006;9.202;2023-05-07T01:54:11;14.40;99.90
10437;DHT22;5265;50.006;9.202;2023-05-07T01:56:38;14.50;99.90
10437;DHT22;5265;50.006;9.202;2023-05-07T01:59:07;14.50;99.90
10437;DHT22;5265;50.006;9.202;2023-05-07T02:01:35;14.50;99.90
10437;DHT22;5265;50.006;9.202;2023-05-07T02:04:02;14.50;99.90
10437;DHT22;5265;50.006;9.202;2023-05-07T02:06:29;14.50;99.90
10437;DHT22;5265;50.006;9.202;2023-05-07T02:09:02;14.50;99.90
10437;DHT22;5265;50.006;9.202;2023-05-07T02:11:29;14.50;99.90
10437;DHT22;5265;50.006;9.202;2023-05-07T02:13:56;14.50;99.90
10437;DHT22;5265;50.006;9.202;2023-05-07T02:16:25;14.50;99.90
10437;DHT22;5265;50.006;9.202;2023-05-07T02:18:53;14.40;99.90
10437;DHT22;5265;50.006;9.202;2023-05-07T02:21:20;14.40;99.90
10437;DHT22;5265;50.006;9.202;2023-05-07T02:23:48;14.50;99.90
10437;DHT22;5265;50.006;9.202;2023-05-07T02:26:15;14.50;99.90
10437;DHT22;5265;50.006;9.202;2023-05-07T02:28:42;14.50;99.90
10437;DHT22;5265;50.006;9.202;2023-05-07T02:31:09;14.50;99.90
10437;DHT22;5265;50.006;9.202;2023-05-07T02:33:38;14.60;99.90
10437;DHT22;5265;50.006;9.202;2023-05-07T02:36:08;14.60;99.90
10437;DHT22;5265;50.006;9.202;2023-05-07T02:38:42;14.60;99.90
10437;DHT22;5265;50.006;9.202;2023-05-07T02:41:09;14.70;99.90
10437;DHT22;5265;50.006;9.202;2023-05-07T02:43:37;14.60;99.90
10437;DHT22;5265;50.006;9.202;2023-05-07T02:46:04;14.70;99.90
10437;DHT22;5265;50.006;9.202;2023-05-07T02:48:35;14.70;99.90
10437;DHT22;5265;50.006;9.202;2023-05-07T02:51:03;14.80;99.90
10437;DHT22;5265;50.006;9.202;2023-05-07T02:53:32;14.70;99.90
10437;DHT22;5265;50.006;9.202;2023-05-07T02:55:59;14.80;99.90
10437;DHT22;5265;50.006;9.202;2023-05-07T02:58:27;14.70;99.90
10437;DHT22;5265;50.006;9.202;2023-05-07T03:00:54;14.80;99.90
10437;DHT22;5265;50.006;9.202;2023-05-07T03:03:36;14.90;99.90
10437;DHT22;5265;50.006;9.202;2023-05-07T03:06:04;15.00;99.90
10437;DHT22;5265;50.006;9.202;2023-05-07T03:08:32;14.90;99.90
10437;DHT22;5265;50.006;9.202;2023-05-07T03:10:59;14.90;99.90
10437;DHT22;5265;50.006;9.202;2023-05-07T03:13:26;15.00;99.90
10437;DHT22;5265;50.006;9.202;2023-05-07T03:15:54;14.90;99.90
10437;DHT22;5265;50.006;9.202;2023-05-07T03:18:21;15.00;99.90
10437;DHT22;5265;50.006;9.202;2023-05-07T03:20:48;15.00;99.90
10437;DHT22;5265;50.006;9.202;2023-05-07T03:23:18;15.00;99.90
10437;DHT22;5265;50.006;9.202;2023-05-07T03:25:46;15.00;99.90
10437;DHT22;5265;50.006;9.202;2023-05-07T03:28:13;14.90;99.90
10437;DHT22;5265;50.006;9.202;2023-05-07T03:30:46;15.00;99.90
10437;DHT22;5265;50.006;9.202;2023-05-07T03:33:13;15.00;99.90
10437;DHT22;5265;50.006;9.202;2023-05-07T03:35:41;14.90;99.90
10437;DHT22;5265;50.006;9.202;2023-05-07T03:38:09;15.00;99.90
10437;DHT22;5265;50.006;9.202;2023-05-07T03:40:39;15.10;99.90
10437;DHT22;5265;50.006;9.202;2023-05-07T03:43:06;15.00;99.90
10437;DHT22;5265;50.006;9.202;2023-05-07T03:45:36;15.00;99.90
10437;DHT22;5265;50.006;9.202;2023-05-07T03:48:24;15.10;99.90
10437;DHT22;5265;50.006;9.202;2023-05-07T03:50:55;15.20;99.90
10437;DHT22;5265;50.006;9.202;2023-05-07T03:53:24;15.00;99.90
10437;DHT22;5265;50.006;9.202;2023-05-07T03:55:53;15.10;99.90
10437;DHT22;5265;50.006;9.202;2023-05-07T03:58:20;15.00;99.90
10437;DHT22;5265;50.006;9.202;2023-05-07T04:00:48;15.00;99.90
10437;DHT22;5265;50.006;9.202;2023-05-07T04:03:24;15.10;99.90
10437;DHT22;5265;50.006;9.202;2023-05-07T04:05:52;15.00;99.90
10437;DHT22;5265;50.006;9.202;2023-05-07T04:08:19;15.10;99.90
10437;DHT22;5265;50.006;9.202;2023-05-07T04:10:55;15.00;99.90
10437;DHT22;5265;50.006;9.202;2023-05-07T04:13:24;15.00;99.90
10437;DHT22;5265;50.006;9.202;2023-05-07T04:15:51;14.90;99.90
10437;DHT22;5265;50.006;9.202;2023-05-07T04:18:19;15.00;99.90
10437;DHT22;5265;50.006;9.202;2023-05-07T04:20:48;15.00;99.90
10437;DHT22;5265;50.006;9.202;2023-05-07T04:23:16;15.00;99.90
10437;DHT22;5265;50.006;9.202;2023-05-07T04:25:43;14.90;99.90
10437;DHT22;5265;50.006;9.202;2023-05-07T04:28:30;15.00;99.90
10437;DHT22;5265;50.006;9.202;2023-05-07T04:30:57;15.00;99.90
10437;DHT22;5265;50.006;9.202;2023-05-07T04:33:25;15.10;99.90
10437;DHT22;5265;50.006;9.202;2023-05-07T04:35:54;15.00;99.90
10437;DHT22;5265;50.006;9.202;2023-05-07T04:38:21;15.00;99.90
10437;DHT22;5265;50.006;9.202;2023-05-07T04:40:51;15.00;99.90
10437;DHT22;5265;50.006;9.202;2023-05-07T04:43:22;15.10;99.90
10437;DHT22;5265;50.006;9.202;2023-05-07T04:45:51;15.10;99.90
10437;DHT22;5265;50.006;9.202;2023-05-07T04:48:21;15.20;99.90
10437;DHT22;5265;50.006;9.202;2023-05-07T04:50:50;15.10;99.90
10437;DHT22;5265;50.006;9.202;2023-05-07T04:53:19;15.20;99.90
10437;DHT22;5265;50.006;9.202;2023-05-07T04:55:48;15.10;99.90
10437;DHT22;5265;50.006;9.202;2023-05-07T04:58:16;15.10;99.90
10437;DHT22;5265;50.006;9.202;2023-05-07T05:00:45;15.10;99.90
10437;DHT22;5265;50.006;9.202;2023-05-07T05:03:14;15.10;99.90
10437;DHT22;5265;50.006;9.202;2023-05-07T05:05:41;15.10;99.90
10437;DHT22;5265;50.006;9.202;2023-05-07T05:08:08;15.20;99.90
10437;DHT22;5265;50.006;9.202;2023-05-07T05:10:39;15.30;99.90
10437;DHT22;5265;50.006;9.202;2023-05-07T05:13:07;15.30;99.90
10437;DHT22;5265;50.006;9.202;2023-05-07T05:15:34;15.20;99.90
10437;DHT22;5265;50.006;9.202;2023-05-07T05:18:02;15.30;99.90
10437;DHT22;5265;50.006;9.202;2023-05-07T05:20:31;15.30;99.90
10437;DHT22;5265;50.006;9.202;2023-05-07T05:22:58;15.30;99.90
10437;DHT22;5265;50.006;9.202;2023-05-07T05:25:25;15.40;99.90
10437;DHT22;5265;50.006;9.202;2023-05-07T05:27:53;15.30;99.90
10437;DHT22;5265;50.006;9.202;2023-05-07T05:30:21;15.40;99.90
10437;DHT22;5265;50.006;9.202;2023-05-07T05:32:48;15.50;99.90
10437;DHT22;5265;50.006;9.202;2023-05-07T05:35:15;15.50;99.90
10437;DHT22;5265;50.006;9.202;2023-05-07T05:37:44;15.60;99.90
10437;DHT22;5265;50.006;9.202;2023-05-07T05:40:12;15.60;99.90
10437;DHT22;5265;50.006;9.202;2023-05-07T05:42:39;15.50;99.90
10437;DHT22;5265;50.006;9.202;2023-05-07T05:45:08;15.60;99.90
10437;DHT22;5265;50.006;9.202;2023-05-07T05:47:35;15.70;99.90
10437;DHT22;5265;50.006;9.202;2023-05-07T05:50:02;15.70;99.90
10437;DHT22;5265;50.006;9.202;2023-05-07T05:52:30;15.80;99.90
10437;DHT22;5265;50.006;9.202;2023-05-07T05:54:59;15.80;99.90
10437;DHT22;5265;50.006;9.202;2023-05-07T05:57:26;15.80;99.90
10437;DHT22;5265;50.006;9.202;2023-05-07T05:59:54;16.00;99.90
10437;DHT22;5265;50.006;9.202;2023-05-07T06:02:23;16.00;99.90
10437;DHT22;5265;50.006;9.202;2023-05-07T06:04:50;16.00;99.90
10437;DHT22;5265;50.006;9.202;2023-05-07T06:07:19;16.00;99.90
10437;DHT22;5265;50.006;9.202;2023-05-07T06:09:47;16.00;99.90
10437;DHT22;5265;50.006;9.202;2023-05-07T06:12:15;16.10;99.90
10437;DHT22;5265;50.006;9.202;2023-05-07T06:14:42;16.00;99.90
10437;DHT22;5265;50.006;9.202;2023-05-07T06:17:11;16.00;99.90
10437;DHT22;5265;50.006;9.202;2023-05-07T06:19:38;16.10;99.90
10437;DHT22;5265;50.006;9.202;2023-05-07T06:22:06;16.10;99.90
10437;DHT22;5265;50.006;9.202;2023-05-07T06:24:34;16.00;99.90
10437;DHT22;5265;50.006;9.202;2023-05-07T06:27:04;16.10;99.90
10437;DHT22;5265;50.006;9.202;2023-05-07T06:29:33;16.10;99.90
10437;DHT22;5265;50.006;9.202;2023-05-07T06:32:07;16.20;99.90
10437;DHT22;5265;50.006;9.202;2023-05-07T06:34:35;16.30;99.90
10437;DHT22;5265;50.006;9.202;2023-05-07T06:37:02;16.30;99.90
10437;DHT22;5265;50.006;9.202;2023-05-07T06:39:46;16.30;99.90
10437;DHT22;5265;50.006;9.202;2023-05-07T06:42:13;16.30;99.90
10437;DHT22;5265;50.006;9.202;2023-05-07T06:44:44;16.40;99.90
10437;DHT22;5265;50.006;9.202;2023-05-07T06:47:14;16.40;99.90
10437;DHT22;5265;50.006;9.202;2023-05-07T06:49:41;16.40;99.90
10437;DHT22;5265;50.006;9.202;2023-05-07T06:52:08;16.50;99.90
10437;DHT22;5265;50.006;9.202;2023-05-07T06:54:35;16.60;99.90
10437;DHT22;5265;50.006;9.202;2023-05-07T06:57:02;16.50;99.90
10437;DHT22;5265;50.006;9.202;2023-05-07T06:59:30;16.60;99.90
10437;DHT22;5265;50.006;9.202;2023-05-07T07:02:00;16.70;99.90
10437;DHT22;5265;50.006;9.202;2023-05-07T07:04:27;16.80;99.90
10437;DHT22;5265;50.006;9.202;2023-05-07T07:07:01;16.80;99.90
10437;DHT22;5265;50.006;9.202;2023-05-07T07:09:28;16.80;99.90
10437;DHT22;5265;50.006;9.202;2023-05-07T07:11:56;16.90;99.90
10437;DHT22;5265;50.006;9.202;2023-05-07T07:14:24;17.00;99.90
10437;DHT22;5265;50.006;9.202;2023-05-07T07:16:53;17.00;99.90
10437;DHT22;5265;50.006;9.202;2023-05-07T07:19:23;17.10;99.90
10437;DHT22;5265;50.006;9.202;2023-05-07T07:21:53;17.20;99.90
10437;DHT22;5265;50.006;9.202;2023-05-07T07:24:20;17.20;99.90
10437;DHT22;5265;50.006;9.202;2023-05-07T07:26:50;17.30;99.90
10437;DHT22;5265;50.006;9.202;2023-05-07T07:29:19;17.40;99.90
10437;DHT22;5265;50.006;9.202;2023-05-07T07:31:47;17.50;99.90
10437;DHT22;5265;50.006;9.202;2023-05-07T07:34:14;17.70;99.90
10437;DHT22;5265;50.006;9.202;2023-05-07T07:36:43;17.50;99.90
10437;DHT22;5265;50.006;9.202;2023-05-07T07:39:12;17.60;99.90
10437;DHT22;5265;50.006;9.202;2023-05-07T07:41:40;17.80;99.90
10437;DHT22;5265;50.006;9.202;2023-05-07T07:44:08;17.70;99.90
10437;DHT22;5265;50.006;9.202;2023-05-07T07:46:40;17.70;99.90
10437;DHT22;5265;50.006;9.202;2023-05-07T07:49:07;17.90;99.90
10437;DHT22;5265;50.006;9.202;2023-05-07T07:51:35;17.90;99.90
10437;DHT22;5265;50.006;9.202;2023-05-07T07:54:04;18.00;99.90
10437;DHT22;5265;50.006;9.202;2023-05-07T07:56:33;18.00;99.90
10437;DHT22;5265;50.006;9.202;2023-05-07T07:59:01;18.00;99.90
10437;DHT22;5265;50.006;9.202;2023-05-07T08:01:29;18.10;99.90
10437;DHT22;5265;50.006;9.202;2023-05-07T08:03:58;18.10;99.90
10437;DHT22;5265;50.006;9.202;2023-05-07T08:06:26;18.00;99.90
10437;DHT22;5265;50.006;9.202;2023-05-07T08:08:54;18.10;99.90
10437;DHT22;5265;50.006;9.202;2023-05-07T08:11:23;18.20;99.90
10437;DHT22;5265;50.006;9.202;2023-05-07T08:13:53;18.30;99.90
10437;DHT22;5265;50.006;9.202;2023-05-07T08:16:20;18.30;99.90
10437;DHT22;5265;50.006;9.202;2023-05-07T08:18:47;18.40;99.90
10437;DHT22;5265;50.006;9.202;2023-05-07T08:21:15;18.40;99.90
10437;DHT22;5265;50.006;9.202;2023-05-07T08:23:42;18.50;99.90
10437;DHT22;5265;50.006;9.202;2023-05-07T08:26:10;18.50;99.90
10437;DHT22;5265;50.006;9.202;2023-05-07T08:28:39;18.60;99.90
10437;DHT22;5265;50.006;9.202;2023-05-07T08:31:07;18.80;99.90
10437;DHT22;5265;50.006;9.202;2023-05-07T08:33:37;18.90;99.90
10437;DHT22;5265;50.006;9.202;2023-05-07T08:36:05;18.80;99.90
10437;DHT22;5265;50.006;9.202;2023-05-07T08:38:32;19.00;99.90
10437;DHT22;5265;50.006;9.202;2023-05-07T08:41:00;19.00;99.90
10437;DHT22;5265;50.006;9.202;2023-05-07T08:43:29;19.10;99.90
10437;DHT22;5265;50.006;9.202;2023-05-07T08:46:00;19.00;99.90
10437;DHT22;5265;50.006;9.202;2023-05-07T08:48:31;19.30;99.90
10437;DHT22;5265;50.006;9.202;2023-05-07T08:51:08;19.40;99.90
10437;DHT22;5265;50.006;9.202;2023-05-07T08:53:35;19.10;99.90
10437;DHT22;5265;50.006;9.202;2023-05-07T08:56:03;19.50;99.90
10437;DHT22;5265;50.006;9.202;2023-05-07T08:58:31;19.40;99.90
10437;DHT22;5265;50.006;9.202;2023-05-07T09:00:58;19.60;99.90
10437;DHT22;5265;50.006;9.202;2023-05-07T09:03:28;19.60;99.90
10437;DHT22;5265;50.006;9.202;2023-05-07T09:05:58;19.40;99.90
10437;DHT22;5265;50.006;9.202;2023-05-07T09:08:26;19.70;99.90
10437;DHT22;5265;50.006;9.202;2023-05-07T09:10:56;20.00;99.90
10437;DHT22;5265;50.006;9.202;2023-05-07T09:13:24;19.90;99.90
10437;DHT22;5265;50.006;9.202;2023-05-07T09:15:51;19.90;99.90
10437;DHT22;5265;50.006;9.202;2023-05-07T09:18:19;19.90;99.90
10437;DHT22;5265;50.006;9.202;2023-05-07T09:20:49;20.20;99.90
10437;DHT22;5265;50.006;9.202;2023-05-07T09:23:19;20.20;99.90
10437;DHT22;5265;50.006;9.202;2023-05-07T09:25:47;20.50;99.90
10437;DHT22;5265;50.006;9.202;2023-05-07T09:28:20;20.40;99.90
10437;DHT22;5265;50.006;9.202;2023-05-07T09:30:47;20.50;99.90
10437;DHT22;5265;50.006;9.202;2023-05-07T09:33:15;20.80;99.90
10437;DHT22;5265;50.006;9.202;2023-05-07T09:35:49;20.90;99.90
10437;DHT22;5265;50.006;9.202;2023-05-07T09:38:19;20.90;99.90
10437;DHT22;5265;50.006;9.202;2023-05-07T09:40:54;21.10;99.90
10437;DHT22;5265;50.006;9.202;2023-05-07T09:43:31;21.00;99.90
10437;DHT22;5265;50.006;9.202;2023-05-07T09:45:59;21.00;99.90
10437;DHT22;5265;50.006;9.202;2023-05-07T09:48:27;21.00;99.90
10437;DHT22;5265;50.006;9.202;2023-05-07T09:50:58;21.20;99.90
10437;DHT22;5265;50.006;9.202;2023-05-07T09:53:31;21.30;99.90
10437;DHT22;5265;50.006;9.202;2023-05-07T09:56:02;21.50;99.90
10437;DHT22;5265;50.006;9.202;2023-05-07T09:58:30;21.70;99.90
10437;DHT22;5265;50.006;9.202;2023-05-07T10:00:58;21.70;99.90
10437;DHT22;5265;50.006;9.202;2023-05-07T10:03:25;21.70;99.90
10437;DHT22;5265;50.006;9.202;2023-05-07T10:06:01;21.80;99.90
10437;DHT22;5265;50.006;9.202;2023-05-07T10:08:31;21.90;99.90
10437;DHT22;5265;50.006;9.202;2023-05-07T10:11:00;22.00;99.90
10437;DHT22;5265;50.006;9.202;2023-05-07T10:13:29;22.10;99.90
10437;DHT22;5265;50.006;9.202;2023-05-07T10:15:58;22.10;99.90
10437;DHT22;5265;50.006;9.202;2023-05-07T10:18:31;22.20;99.90
10437;DHT22;5265;50.006;9.202;2023-05-07T10:21:07;22.20;99.90
10437;DHT22;5265;50.006;9.202;2023-05-07T10:23:35;22.00;99.90
10437;DHT22;5265;50.006;9.202;2023-05-07T10:26:04;22.00;99.90
10437;DHT22;5265;50.006;9.202;2023-05-07T10:28:34;22.20;99.90
10437;DHT22;5265;50.006;9.202;2023-05-07T10:31:08;22.40;99.90
10437;DHT22;5265;50.006;9.202;2023-05-07T10:33:43;22.50;99.90
10437;DHT22;5265;50.006;9.202;2023-05-07T10:36:14;22.50;99.90
10437;DHT22;5265;50.006;9.202;2023-05-07T10:38:42;22.60;99.90
10437;DHT22;5265;50.006;9.202;2023-05-07T10:41:10;22.80;99.90
10437;DHT22;5265;50.006;9.202;2023-05-07T10:43:41;22.80;99.90
10437;DHT22;5265;50.006;9.202;2023-05-07T10:46:14;23.10;99.90
10437;DHT22;5265;50.006;9.202;2023-05-07T10:51:45;23.20;99.90
10437;DHT22;5265;50.006;9.202;2023-05-07T10:54:33;23.40;99.90
10437;DHT22;5265;50.006;9.202;2023-05-07T10:59:48;23.60;99.90
10437;DHT22;5265;50.006;9.202;2023-05-07T11:02:21;24.00;99.90
10437;DHT22;5265;50.006;9.202;2023-05-07T11:07:42;24.00;99.90
10437;DHT22;5265;50.006;9.202;2023-05-07T11:10:20;24.30;99.90
10437;DHT22;5265;50.006;9.202;2023-05-07T11:12:57;24.40;99.90
10437;DHT22;5265;50.006;9.202;2023-05-07T11:15:43;24.50;99.90
10437;DHT22;5265;50.006;9.202;2023-05-07T11:18:27;24.50;99.90
10437;DHT22;5265;50.006;9.202;2023-05-07T11:21:13;24.60;99.90
10437;DHT22;5265;50.006;9.202;2023-05-07T11:23:58;24.50;99.90
10437;DHT22;5265;50.006;9.202;2023-05-07T11:26:41;24.40;99.90
10437;DHT22;5265;50.006;9.202;2023-05-07T11:29:10;24.80;99.90
10437;DHT22;5265;50.006;9.202;2023-05-07T11:31:38;24.70;99.90
10437;DHT22;5265;50.006;9.202;2023-05-07T11:34:05;24.70;99.90
10437;DHT22;5265;50.006;9.202;2023-05-07T11:36:33;24.60;99.90
10437;DHT22;5265;50.006;9.202;2023-05-07T11:39:04;25.00;99.90
10437;DHT22;5265;50.006;9.202;2023-05-07T11:41:34;25.10;99.90
10437;DHT22;5265;50.006;9.202;2023-05-07T11:44:02;24.90;99.90
10437;DHT22;5265;50.006;9.202;2023-05-07T11:46:30;25.20;99.90
10437;DHT22;5265;50.006;9.202;2023-05-07T11:48:57;25.20;99.90
10437;DHT22;5265;50.006;9.202;2023-05-07T11:51:24;25.40;99.90
10437;DHT22;5265;50.006;9.202;2023-05-07T11:53:52;25.50;99.90
10437;DHT22;5265;50.006;9.202;2023-05-07T11:56:21;25.60;99.90
10437;DHT22;5265;50.006;9.202;2023-05-07T11:58:48;25.80;99.90
10437;DHT22;5265;50.006;9.202;2023-05-07T12:01:17;26.10;99.90
10437;DHT22;5265;50.006;9.202;2023-05-07T12:03:45;26.30;99.90
10437;DHT22;5265;50.006;9.202;2023-05-07T12:06:13;26.30;99.90
10437;DHT22;5265;50.006;9.202;2023-05-07T12:08:41;26.30;99.90
10437;DHT22;5265;50.006;9.202;2023-05-07T12:11:09;26.50;99.90
10437;DHT22;5265;50.006;9.202;2023-05-07T12:13:38;26.40;99.90
10437;DHT22;5265;50.006;9.202;2023-05-07T12:16:06;26.40;99.90
10437;DHT22;5265;50.006;9.202;2023-05-07T12:18:34;26.60;99.90
10437;DHT22;5265;50.006;9.202;2023-05-07T12:21:02;26.60;99.90
10437;DHT22;5265;50.006;9.202;2023-05-07T12:23:30;26.70;99.90
10437;DHT22;5265;50.006;9.202;2023-05-07T12:25:58;27.00;99.90
10437;DHT22;5265;50.006;9.202;2023-05-07T12:28:26;27.00;99.90
10437;DHT22;5265;50.006;9.202;2023-05-07T12:30:54;26.90;99.90
10437;DHT22;5265;50.006;9.202;2023-05-07T12:33:23;26.90;99.90
10437;DHT22;5265;50.006;9.202;2023-05-07T12:35:52;26.90;99.90
10437;DHT22;5265;50.006;9.202;2023-05-07T12:38:20;26.90;99.90
10437;DHT22;5265;50.006;9.202;2023-05-07T12:40:47;26.90;99.90
10437;DHT22;5265;50.006;9.202;2023-05-07T12:43:17;26.90;99.90
10437;DHT22;5265;50.006;9.202;2023-05-07T12:45:44;26.70;99.90
10437;DHT22;5265;50.006;9.202;2023-05-07T12:48:13;26.90;99.90
10437;DHT22;5265;50.006;9.202;2023-05-07T12:50:41;27.20;99.90
10437;DHT22;5265;50.006;9.202;2023-05-07T12:53:09;27.50;99.90
10437;DHT22;5265;50.006;9.202;2023-05-07T12:55:40;27.50;99.90
10437;DHT22;5265;50.006;9.202;2023-05-07T12:58:08;27.70;99.90
10437;DHT22;5265;50.006;9.202;2023-05-07T13:00:41;27.70;99.90
10437;DHT22;5265;50.006;9.202;2023-05-07T13:03:09;28.10;99.90
10437;DHT22;5265;50.006;9.202;2023-05-07T13:05:38;28.10;99.90
10437;DHT22;5265;50.006;9.202;2023-05-07T13:08:06;28.10;99.90
10437;DHT22;5265;50.006;9.202;2023-05-07T13:10:35;28.30;99.90
10437;DHT22;5265;50.006;9.202;2023-05-07T13:13:02;28.70;99.90
10437;DHT22;5265;50.006;9.202;2023-05-07T13:15:30;28.90;99.90
10437;DHT22;5265;50.006;9.202;2023-05-07T13:17:58;29.00;99.90
10437;DHT22;5265;50.006;9.202;2023-05-07T13:20:25;29.30;99.90
10437;DHT22;5265;50.006;9.202;2023-05-07T13:22:54;29.20;99.90
10437;DHT22;5265;50.006;9.202;2023-05-07T13:25:21;29.60;99.90
10437;DHT22;5265;50.006;9.202;2023-05-07T13:27:48;29.50;99.90
10437;DHT22;5265;50.006;9.202;2023-05-07T13:30:15;29.50;99.90
10437;DHT22;5265;50.006;9.202;2023-05-07T13:32:42;29.80;99.90
10437;DHT22;5265;50.006;9.202;2023-05-07T13:35:11;29.90;99.90
10437;DHT22;5265;50.006;9.202;2023-05-07T13:37:38;30.00;99.90
10437;DHT22;5265;50.006;9.202;2023-05-07T13:40:07;30.00;99.90
10437;DHT22;5265;50.006;9.202;2023-05-07T13:42:35;30.00;99.90
10437;DHT22;5265;50.006;9.202;2023-05-07T13:45:02;29.70;99.90
10437;DHT22;5265;50.006;9.202;2023-05-07T13:47:30;29.30;99.90
10437;DHT22;5265;50.006;9.202;2023-05-07T13:49:58;29.00;99.90
10437;DHT22;5265;50.006;9.202;2023-05-07T13:52:25;29.10;99.90
10437;DHT22;5265;50.006;9.202;2023-05-07T13:54:52;29.00;99.90
10437;DHT22;5265;50.006;9.202;2023-05-07T13:57:22;29.10;99.90
10437;DHT22;5265;50.006;9.202;2023-05-07T13:59:49;29.40;99.90
10437;DHT22;5265;50.006;9.202;2023-05-07T14:02:16;29.30;99.90
10437;DHT22;5265;50.006;9.202;2023-05-07T14:04:44;29.60;99.90
10437;DHT22;5265;50.006;9.202;2023-05-07T14:07:12;29.90;99.90
10437;DHT22;5265;50.006;9.202;2023-05-07T14:09:39;29.90;99.90
10437;DHT22;5265;50.006;9.202;2023-05-07T14:12:06;29.70;99.90
10437;DHT22;5265;50.006;9.202;2023-05-07T14:14:35;29.50;99.90
10437;DHT22;5265;50.006;9.202;2023-05-07T14:17:02;28.70;99.90
10437;DHT22;5265;50.006;9.202;2023-05-07T14:19:29;28.60;99.90
10437;DHT22;5265;50.006;9.202;2023-05-07T14:21:56;28.40;99.90
10437;DHT22;5265;50.006;9.202;2023-05-07T14:24:23;28.40;99.90
10437;DHT22;5265;50.006;9.202;2023-05-07T14:26:51;28.50;99.90
10437;DHT22;5265;50.006;9.202;2023-05-07T14:29:18;28.50;99.90
10437;DHT22;5265;50.006;9.202;2023-05-07T14:31:47;28.80;99.90
10437;DHT22;5265;50.006;9.202;2023-05-07T14:34:14;29.10;99.90
10437;DHT22;5265;50.006;9.202;2023-05-07T14:36:41;29.20;99.90
10437;DHT22;5265;50.006;9.202;2023-05-07T14:39:09;29.20;99.90
10437;DHT22;5265;50.006;9.202;2023-05-07T14:41:37;29.10;99.90
10437;DHT22;5265;50.006;9.202;2023-05-07T14:44:04;29.00;99.90
10437;DHT22;5265;50.006;9.202;2023-05-07T14:46:31;29.00;99.90
10437;DHT22;5265;50.006;9.202;2023-05-07T14:48:59;29.10;99.90
10437;DHT22;5265;50.006;9.202;2023-05-07T14:51:27;29.10;99.90
10437;DHT22;5265;50.006;9.202;2023-05-07T14:53:54;29.30;99.90
10437;DHT22;5265;50.006;9.202;2023-05-07T14:56:21;29.20;99.90
10437;DHT22;5265;50.006;9.202;2023-05-07T14:58:49;29.20;99.90
10437;DHT22;5265;50.006;9.202;2023-05-07T15:01:16;28.90;99.90
10437;DHT22;5265;50.006;9.202;2023-05-07T15:03:43;28.80;99.90
10437;DHT22;5265;50.006;9.202;2023-05-07T15:06:12;28.60;99.90
10437;DHT22;5265;50.006;9.202;2023-05-07T15:08:39;28.50;99.90
10437;DHT22;5265;50.006;9.202;2023-05-07T15:11:06;28.40;99.90
10437;DHT22;5265;50.006;9.202;2023-05-07T15:13:33;28.20;99.90
10437;DHT22;5265;50.006;9.202;2023-05-07T15:16:00;28.10;99.90
10437;DHT22;5265;50.006;9.202;2023-05-07T15:18:28;27.90;99.90
10437;DHT22;5265;50.006;9.202;2023-05-07T15:20:55;27.60;99.90
10437;DHT22;5265;50.006;9.202;2023-05-07T15:23:24;27.40;99.90
10437;DHT22;5265;50.006;9.202;2023-05-07T15:25:52;27.30;99.90
10437;DHT22;5265;50.006;9.202;2023-05-07T15:28:19;27.20;99.90
10437;DHT22;5265;50.006;9.202;2023-05-07T15:30:46;27.00;99.90
10437;DHT22;5265;50.006;9.202;2023-05-07T15:33:13;26.90;99.90
10437;DHT22;5265;50.006;9.202;2023-05-07T15:35:41;26.80;99.90
10437;DHT22;5265;50.006;9.202;2023-05-07T15:38:08;26.60;99.90
10437;DHT22;5265;50.006;9.202;2023-05-07T15:40:37;26.40;99.90
10437;DHT22;5265;50.006;9.202;2023-05-07T15:43:07;26.20;99.90
10437;DHT22;5265;50.006;9.202;2023-05-07T15:45:38;26.10;99.90
10437;DHT22;5265;50.006;9.202;2023-05-07T15:48:05;26.00;99.90
10437;DHT22;5265;50.006;9.202;2023-05-07T15:50:32;25.90;99.90
10437;DHT22;5265;50.006;9.202;2023-05-07T15:53:00;25.80;99.90
10437;DHT22;5265;50.006;9.202;2023-05-07T15:55:27;25.70;99.90
10437;DHT22;5265;50.006;9.202;2023-05-07T15:57:55;25.70;99.90
10437;DHT22;5265;50.006;9.202;2023-05-07T16:00:24;25.50;99.90
10437;DHT22;5265;50.006;9.202;2023-05-07T16:02:52;25.50;99.90